sensor_id;sensor_type;location;lat;lon;timestamp;pressure;altitude;pressure_sealevel;temperature;humidity
19086;BME280;9675;51.538;6.728;2023-07-13T00:02:16;101081.22;;;22.96;49.51
19086;BME280;9675;51.538;6.728;2023-07-13T00:04:43;101081.22;;;22.93;49.42
19086;BME280;9675;51.538;6.728;2023-07-13T00:07:12;101086.50;;;22.90;49.34
19086;BME280;9675;51.538;6.728;2023-07-13T00:09:40;101083.81;;;22.85;49.36
19086;BME280;9675;51.538;6.728;2023-07-13T00:12:24;101080.31;;;22.80;49.36
19086;BME280;9675;51.538;6.728;2023-07-13T00:14:51;101087.28;;;22.75;49.08
19086;BME280;9675;51.538;6.728;2023-07-13T00:17:18;101082.84;;;22.70;49.48
19086;BME280;9675;51.538;6.728;2023-07-13T00:19:45;101082.84;;;22.67;49.45
19086;BME280;9675;51.538;6.728;2023-07-13T00:22:14;101091.59;;;22.63;49.56
19086;BME280;9675;51.538;6.728;2023-07-13T00:24:41;101089.84;;;22.59;49.79
19086;BME280;9675;51.538;6.728;2023-07-13T00:27:08;101088.91;;;22.51;49.83
19086;BME280;9675;51.538;6.728;2023-07-13T00:29:36;101085.41;;;22.47;50.02
19086;BME280;9675;51.538;6.728;2023-07-13T00:32:06;101091.47;;;22.41;49.96
19086;BME280;9675;51.538;6.728;2023-07-13T00:34:35;101093.22;;;22.36;50.04
19086;BME280;9675;51.538;6.728;2023-07-13T00:37:03;101094.06;;;22.32;50.01
19086;BME280;9675;51.538;6.728;2023-07-13T00:39:34;101094.88;;;22.25;50.19
19086;BME280;9675;51.538;6.728;2023-07-13T00:42:03;101085.22;;;22.20;50.33
19086;BME280;9675;51.538;6.728;2023-07-13T00:44:30;101086.06;;;22.14;50.59
19086;BME280;9675;51.538;6.728;2023-07-13T00:46:58;101083.41;;;22.08;50.66
19086;BME280;9675;51.538;6.728;2023-07-13T00:49:29;101094.75;;;22.04;50.69
19086;BME280;9675;51.538;6.728;2023-07-13T00:52:02;101092.97;;;22.03;50.57
19086;BME280;9675;51.538;6.728;2023-07-13T00:54:35;101087.72;;;22.00;50.79
19086;BME280;9675;51.538;6.728;2023-07-13T00:57:08;101089.44;;;21.98;50.89
19086;BME280;9675;51.538;6.728;2023-07-13T00:59:40;101098.19;;;21.97;50.71
19086;BME280;9675;51.538;6.728;2023-07-13T01:02:09;101094.69;;;21.95;50.87
19086;BME280;9675;51.538;6.728;2023-07-13T01:04:37;101089.41;;;21.93;50.93
19086;BME280;9675;51.538;6.728;2023-07-13T01:07:06;101089.38;;;21.90;51.05
19086;BME280;9675;51.538;6.728;2023-07-13T01:09:35;101088.47;;;21.87;51.03
19086;BME280;9675;51.538;6.728;2023-07-13T01:12:02;101090.16;;;21.82;51.21
19086;BME280;9675;51.538;6.728;2023-07-13T01:14:30;101084.91;;;21.79;51.37
19086;BME280;9675;51.538;6.728;2023-07-13T01:16:58;101082.28;;;21.77;51.37
19086;BME280;9675;51.538;6.728;2023-07-13T01:19:35;101090.97;;;21.70;51.40
19086;BME280;9675;51.538;6.728;2023-07-13T01:22:07;101103.16;;;21.65;51.74
19086;BME280;9675;51.538;6.728;2023-07-13T01:24:39;101089.13;;;21.61;51.60
19086;BME280;9675;51.538;6.728;2023-07-13T01:27:07;101096.13;;;21.59;52.00
19086;BME280;9675;51.538;6.728;2023-07-13T01:29:38;101096.09;;;21.56;51.89
19086;BME280;9675;51.538;6.728;2023-07-13T01:32:09;101093.41;;;21.50;51.88
19086;BME280;9675;51.538;6.728;2023-07-13T01:34:36;101092.50;;;21.47;52.03
19086;BME280;9675;51.538;6.728;2023-07-13T01:37:05;101094.22;;;21.43;51.94
19086;BME280;9675;51.538;6.728;2023-07-13T01:39:33;101095.06;;;21.39;52.07
19086;BME280;9675;51.538;6.728;2023-07-13T01:42:00;101086.28;;;21.36;52.18
19086;BME280;9675;51.538;6.728;2023-07-13T01:44:27;101092.38;;;21.33;52.19
19086;BME280;9675;51.538;6.728;2023-07-13T01:46:54;101093.22;;;21.29;52.44
19086;BME280;9675;51.538;6.728;2023-07-13T01:49:21;101095.84;;;21.29;52.39
19086;BME280;9675;51.538;6.728;2023-07-13T01:51:48;101091.47;;;21.28;52.41
19086;BME280;9675;51.538;6.728;2023-07-13T01:54:17;101097.53;;;21.24;52.59
19086;BME280;9675;51.538;6.728;2023-07-13T01:56:44;101097.50;;;21.23;52.70
19086;BME280;9675;51.538;6.728;2023-07-13T01:59:11;101095.72;;;21.18;52.82
19086;BME280;9675;51.538;6.728;2023-07-13T02:01:38;101098.28;;;21.14;52.75
19086;BME280;9675;51.538;6.728;2023-07-13T02:04:05;101095.66;;;21.14;52.89
19086;BME280;9675;51.538;6.728;2023-07-13T02:06:32;101113.09;;;21.12;53.17
19086;BME280;9675;51.538;6.728;2023-07-13T02:08:59;101106.91;;;21.07;53.03
19086;BME280;9675;51.538;6.728;2023-07-13T02:11:28;101103.38;;;21.05;53.11
19086;BME280;9675;51.538;6.728;2023-07-13T02:13:58;101106.00;;;21.02;53.13
19086;BME280;9675;51.538;6.728;2023-07-13T02:16:25;101098.09;;;20.97;53.50
19086;BME280;9675;51.538;6.728;2023-07-13T02:18:52;101096.25;;;20.93;53.57
19086;BME280;9675;51.538;6.728;2023-07-13T02:21:21;101098.00;;;20.91;53.64
19086;BME280;9675;51.538;6.728;2023-07-13T02:23:49;101103.19;;;20.87;53.66
19086;BME280;9675;51.538;6.728;2023-07-13T02:26:16;101102.28;;;20.85;54.08
19086;BME280;9675;51.538;6.728;2023-07-13T02:28:45;101097.91;;;20.82;53.85
19086;BME280;9675;51.538;6.728;2023-07-13T02:31:14;101105.75;;;20.82;54.09
19086;BME280;9675;51.538;6.728;2023-07-13T02:33:42;101109.19;;;20.79;53.99
19086;BME280;9675;51.538;6.728;2023-07-13T02:36:10;101116.19;;;20.77;54.42
19086;BME280;9675;51.538;6.728;2023-07-13T02:38:37;101113.47;;;20.73;54.53
19086;BME280;9675;51.538;6.728;2023-07-13T02:41:05;101115.16;;;20.68;54.60
19086;BME280;9675;51.538;6.728;2023-07-13T02:43:33;101114.28;;;20.67;54.63
19086;BME280;9675;51.538;6.728;2023-07-13T02:46:02;101117.78;;;20.66;54.73
19086;BME280;9675;51.538;6.728;2023-07-13T02:48:32;101120.34;;;20.62;55.03
19086;BME280;9675;51.538;6.728;2023-07-13T02:50:59;101115.03;;;20.56;55.51
19086;BME280;9675;51.538;6.728;2023-07-13T02:53:27;101118.44;;;20.50;55.15
19086;BME280;9675;51.538;6.728;2023-07-13T02:55:53;101114.88;;;20.45;55.70
19086;BME280;9675;51.538;6.728;2023-07-13T02:58:21;101116.53;;;20.40;55.77
19086;BME280;9675;51.538;6.728;2023-07-13T03:00:48;101115.63;;;20.38;55.81
19086;BME280;9675;51.538;6.728;2023-07-13T03:03:17;101110.38;;;20.36;55.62
19086;BME280;9675;51.538;6.728;2023-07-13T03:05:45;101112.91;;;20.30;55.90
19086;BME280;9675;51.538;6.728;2023-07-13T03:08:16;101119.88;;;20.31;55.78
19086;BME280;9675;51.538;6.728;2023-07-13T03:10:43;101124.28;;;20.31;56.09
19086;BME280;9675;51.538;6.728;2023-07-13T03:13:10;101126.88;;;20.31;56.08
19086;BME280;9675;51.538;6.728;2023-07-13T03:15:37;101123.28;;;20.27;55.94
19086;BME280;9675;51.538;6.728;2023-07-13T03:18:04;101128.44;;;20.21;56.24
19086;BME280;9675;51.538;6.728;2023-07-13T03:20:34;101124.88;;;20.16;56.44
19086;BME280;9675;51.538;6.728;2023-07-13T03:23:01;101116.94;;;20.10;56.73
19086;BME280;9675;51.538;6.728;2023-07-13T03:25:29;101119.47;;;20.04;57.08
19086;BME280;9675;51.538;6.728;2023-07-13T03:27:56;101130.72;;;19.99;57.33
19086;BME280;9675;51.538;6.728;2023-07-13T03:30:23;101138.44;;;19.92;57.58
19086;BME280;9675;51.538;6.728;2023-07-13T03:32:50;101135.72;;;19.86;57.89
19086;BME280;9675;51.538;6.728;2023-07-13T03:35:17;101127.81;;;19.82;58.26
19086;BME280;9675;51.538;6.728;2023-07-13T03:37:45;101126.00;;;19.79;58.22
19086;BME280;9675;51.538;6.728;2023-07-13T03:40:13;101132.94;;;19.76;58.54
19086;BME280;9675;51.538;6.728;2023-07-13T03:42:40;101136.38;;;19.75;58.60
19086;BME280;9675;51.538;6.728;2023-07-13T03:45:08;101143.34;;;19.74;58.54
19086;BME280;9675;51.538;6.728;2023-07-13T03:47:35;101136.31;;;19.69;59.51
19086;BME280;9675;51.538;6.728;2023-07-13T03:50:03;101145.81;;;19.65;59.40
19086;BME280;9675;51.538;6.728;2023-07-13T03:52:30;101145.81;;;19.65;59.89
19086;BME280;9675;51.538;6.728;2023-07-13T03:54:59;101151.03;;;19.65;59.97
19086;BME280;9675;51.538;6.728;2023-07-13T03:57:26;101144.94;;;19.63;60.33
19086;BME280;9675;51.538;6.728;2023-07-13T03:59:53;101152.69;;;19.60;60.74
19086;BME280;9675;51.538;6.728;2023-07-13T04:02:20;101155.19;;;19.54;61.09
19086;BME280;9675;51.538;6.728;2023-07-13T04:04:47;101150.84;;;19.53;61.64
19086;BME280;9675;51.538;6.728;2023-07-13T04:07:14;101158.72;;;19.56;61.90
19086;BME280;9675;51.538;6.728;2023-07-13T04:09:42;101163.06;;;19.56;62.15
19086;BME280;9675;51.538;6.728;2023-07-13T04:12:10;101159.56;;;19.55;62.57
19086;BME280;9675;51.538;6.728;2023-07-13T04:14:37;101163.94;;;19.56;62.45
19086;BME280;9675;51.538;6.728;2023-07-13T04:17:05;101158.75;;;19.59;62.40
19086;BME280;9675;51.538;6.728;2023-07-13T04:19:32;101166.59;;;19.59;62.48
19086;BME280;9675;51.538;6.728;2023-07-13T04:21:59;101171.75;;;19.53;63.58
19086;BME280;9675;51.538;6.728;2023-07-13T04:24:26;101177.78;;;19.50;64.37
19086;BME280;9675;51.538;6.728;2023-07-13T04:26:53;101185.44;;;19.43;65.05
19086;BME280;9675;51.538;6.728;2023-07-13T04:29:21;101189.72;;;19.39;65.68
19086;BME280;9675;51.538;6.728;2023-07-13T04:31:48;101183.56;;;19.36;66.87
19086;BME280;9675;51.538;6.728;2023-07-13T04:34:15;101184.31;;;19.30;67.29
19086;BME280;9675;51.538;6.728;2023-07-13T04:36:42;101181.63;;;19.26;68.42
19086;BME280;9675;51.538;6.728;2023-07-13T04:39:09;101179.84;;;19.25;68.45
19086;BME280;9675;51.538;6.728;2023-07-13T04:41:36;101189.47;;;19.26;69.57
19086;BME280;9675;51.538;6.728;2023-07-13T04:44:03;101187.63;;;19.22;69.61
19086;BME280;9675;51.538;6.728;2023-07-13T04:50:19;101182.41;;;19.22;70.22
19086;BME280;9675;51.538;6.728;2023-07-13T04:56:29;101186.53;;;19.10;71.68
19086;BME280;9675;51.538;6.728;2023-07-13T04:58:58;101190.88;;;19.10;72.38
19086;BME280;9675;51.538;6.728;2023-07-13T05:01:25;101186.47;;;19.07;72.21
19086;BME280;9675;51.538;6.728;2023-07-13T05:03:52;101182.06;;;19.05;73.56
19086;BME280;9675;51.538;6.728;2023-07-13T05:06:22;101195.16;;;19.06;73.13
19086;BME280;9675;51.538;6.728;2023-07-13T05:08:49;101201.28;;;19.08;72.15
19086;BME280;9675;51.538;6.728;2023-07-13T05:11:18;101195.22;;;19.09;73.13
19086;BME280;9675;51.538;6.728;2023-07-13T05:13:45;101199.59;;;19.10;72.44
19086;BME280;9675;51.538;6.728;2023-07-13T05:16:12;101196.13;;;19.12;71.71
19086;BME280;9675;51.538;6.728;2023-07-13T05:18:39;101210.88;;;19.09;74.41
19086;BME280;9675;51.538;6.728;2023-07-13T05:21:09;101202.13;;;19.07;74.21
19086;BME280;9675;51.538;6.728;2023-07-13T05:23:38;101197.81;;;19.09;74.13
19086;BME280;9675;51.538;6.728;2023-07-13T05:26:07;101206.59;;;19.12;73.49
19086;BME280;9675;51.538;6.728;2023-07-13T05:28:34;101203.97;;;19.12;74.12
19086;BME280;9675;51.538;6.728;2023-07-13T05:31:01;101210.94;;;19.13;74.37
19086;BME280;9675;51.538;6.728;2023-07-13T05:33:28;101217.88;;;19.10;74.69
19086;BME280;9675;51.538;6.728;2023-07-13T05:35:56;101220.44;;;19.09;74.72
19086;BME280;9675;51.538;6.728;2023-07-13T05:38:23;101224.78;;;19.08;74.75
19086;BME280;9675;51.538;6.728;2023-07-13T05:40:56;101228.22;;;19.07;78.31
19086;BME280;9675;51.538;6.728;2023-07-13T05:43:23;101227.25;;;19.02;79.48
19086;BME280;9675;51.538;6.728;2023-07-13T05:45:53;101238.56;;;19.01;78.67
19086;BME280;9675;51.538;6.728;2023-07-13T05:48:20;101242.94;;;19.04;78.14
19086;BME280;9675;51.538;6.728;2023-07-13T05:50:48;101232.50;;;19.04;80.24
19086;BME280;9675;51.538;6.728;2023-07-13T05:53:15;101235.16;;;19.05;79.45
19086;BME280;9675;51.538;6.728;2023-07-13T05:55:42;101232.56;;;19.07;80.36
19086;BME280;9675;51.538;6.728;2023-07-13T05:58:11;101232.56;;;19.07;79.76
19086;BME280;9675;51.538;6.728;2023-07-13T06:00:39;101237.88;;;19.10;81.16
19086;BME280;9675;51.538;6.728;2023-07-13T06:03:06;101248.22;;;19.07;83.54
19086;BME280;9675;51.538;6.728;2023-07-13T06:05:34;101256.03;;;19.05;83.72
19086;BME280;9675;51.538;6.728;2023-07-13T06:08:03;101252.56;;;19.05;83.34
19086;BME280;9675;51.538;6.728;2023-07-13T06:10:32;101263.00;;;19.05;82.96
19086;BME280;9675;51.538;6.728;2023-07-13T06:13:00;101266.53;;;19.08;82.93
19086;BME280;9675;51.538;6.728;2023-07-13T06:15:28;101269.19;;;19.10;83.74
19086;BME280;9675;51.538;6.728;2023-07-13T06:17:55;101269.28;;;19.15;82.75
19086;BME280;9675;51.538;6.728;2023-07-13T06:20:22;101258.78;;;19.12;85.87
19086;BME280;9675;51.538;6.728;2023-07-13T06:22:49;101267.38;;;19.07;88.87
19086;BME280;9675;51.538;6.728;2023-07-13T06:25:17;101268.31;;;19.09;88.49
19086;BME280;9675;51.538;6.728;2023-07-13T06:27:44;101277.06;;;19.12;88.26
19086;BME280;9675;51.538;6.728;2023-07-13T06:30:12;101271.91;;;19.15;87.52
19086;BME280;9675;51.538;6.728;2023-07-13T06:32:40;101277.19;;;19.18;88.18
19086;BME280;9675;51.538;6.728;2023-07-13T06:35:08;101286.81;;;19.20;88.63
19086;BME280;9675;51.538;6.728;2023-07-13T06:37:38;101285.94;;;19.20;88.28
19086;BME280;9675;51.538;6.728;2023-07-13T06:40:07;101289.47;;;19.22;88.38
19086;BME280;9675;51.538;6.728;2023-07-13T06:42:34;101284.25;;;19.22;87.90
19086;BME280;9675;51.538;6.728;2023-07-13T06:45:01;101289.47;;;19.22;87.86
19086;BME280;9675;51.538;6.728;2023-07-13T06:47:29;101288.59;;;19.23;88.56
19086;BME280;9675;51.538;6.728;2023-07-13T06:49:57;101291.22;;;19.23;89.35
19086;BME280;9675;51.538;6.728;2023-07-13T06:52:24;101290.41;;;19.25;89.84
19086;BME280;9675;51.538;6.728;2023-07-13T06:54:51;101297.31;;;19.23;92.36
19086;BME280;9675;51.538;6.728;2023-07-13T06:57:18;101297.41;;;19.26;92.15
19086;BME280;9675;51.538;6.728;2023-07-13T06:59:46;101307.00;;;19.29;90.57
19086;BME280;9675;51.538;6.728;2023-07-13T07:02:13;101307.09;;;19.32;90.25
19086;BME280;9675;51.538;6.728;2023-07-13T07:04:40;101312.38;;;19.35;89.73
19086;BME280;9675;51.538;6.728;2023-07-13T07:07:08;101309.75;;;19.35;90.79
19086;BME280;9675;51.538;6.728;2023-07-13T07:09:35;101310.59;;;19.34;91.71
19086;BME280;9675;51.538;6.728;2023-07-13T07:12:03;101303.63;;;19.33;91.61
19086;BME280;9675;51.538;6.728;2023-07-13T07:14:32;101307.16;;;19.35;92.43
19086;BME280;9675;51.538;6.728;2023-07-13T07:17:00;101313.31;;;19.37;92.44
19086;BME280;9675;51.538;6.728;2023-07-13T07:19:29;101313.34;;;19.40;91.69
19086;BME280;9675;51.538;6.728;2023-07-13T07:21:56;101311.59;;;19.39;94.39
19086;BME280;9675;51.538;6.728;2023-07-13T07:24:24;101310.75;;;19.40;94.06
19086;BME280;9675;51.538;6.728;2023-07-13T07:26:51;101314.28;;;19.42;94.91
19086;BME280;9675;51.538;6.728;2023-07-13T07:29:18;101316.06;;;19.43;93.84
19086;BME280;9675;51.538;6.728;2023-07-13T07:31:45;101317.91;;;19.47;93.79
19086;BME280;9675;51.538;6.728;2023-07-13T07:34:12;101303.13;;;19.49;92.30
19086;BME280;9675;51.538;6.728;2023-07-13T07:36:39;101308.44;;;19.52;93.80
19086;BME280;9675;51.538;6.728;2023-07-13T07:39:06;101316.28;;;19.52;94.36
19086;BME280;9675;51.538;6.728;2023-07-13T07:41:35;101315.31;;;19.48;95.32
19086;BME280;9675;51.538;6.728;2023-07-13T07:44:02;101308.34;;;19.49;95.90
19086;BME280;9675;51.538;6.728;2023-07-13T07:46:30;101310.19;;;19.53;96.26
19086;BME280;9675;51.538;6.728;2023-07-13T07:48:57;101304.09;;;19.54;97.00
19086;BME280;9675;51.538;6.728;2023-07-13T07:51:24;101309.28;;;19.51;99.42
19086;BME280;9675;51.538;6.728;2023-07-13T07:53:52;101317.97;;;19.50;99.28
19086;BME280;9675;51.538;6.728;2023-07-13T07:56:19;101317.38;;;19.63;98.91
19086;BME280;9675;51.538;6.728;2023-07-13T07:58:47;101312.38;;;19.74;97.52
19086;BME280;9675;51.538;6.728;2023-07-13T08:01:14;101307.31;;;19.83;96.83
19086;BME280;9675;51.538;6.728;2023-07-13T08:03:42;101308.25;;;19.86;98.82
19086;BME280;9675;51.538;6.728;2023-07-13T08:06:09;101310.97;;;19.92;96.75
19086;BME280;9675;51.538;6.728;2023-07-13T08:08:36;101315.47;;;20.00;96.17
19086;BME280;9675;51.538;6.728;2023-07-13T08:11:04;101302.53;;;20.07;94.45
19086;BME280;9675;51.538;6.728;2023-07-13T08:13:31;101301.75;;;20.13;93.66
19086;BME280;9675;51.538;6.728;2023-07-13T08:15:59;101312.34;;;20.19;93.57
19086;BME280;9675;51.538;6.728;2023-07-13T08:18:27;101309.81;;;20.23;92.88
19086;BME280;9675;51.538;6.728;2023-07-13T08:20:54;101306.34;;;20.24;93.62
19086;BME280;9675;51.538;6.728;2023-07-13T08:23:22;101306.38;;;20.27;92.49
19086;BME280;9675;51.538;6.728;2023-07-13T08:25:52;101303.94;;;20.35;91.59
19086;BME280;9675;51.538;6.728;2023-07-13T08:28:19;101311.03;;;20.42;92.20
19086;BME280;9675;51.538;6.728;2023-07-13T08:30:47;101304.06;;;20.41;91.92
19086;BME280;9675;51.538;6.728;2023-07-13T08:33:16;101311.03;;;20.42;91.12
19086;BME280;9675;51.538;6.728;2023-07-13T08:35:46;101313.69;;;20.44;90.94
19086;BME280;9675;51.538;6.728;2023-07-13T08:38:14;101315.44;;;20.45;90.44
19086;BME280;9675;51.538;6.728;2023-07-13T08:40:42;101305.00;;;20.48;89.60
19086;BME280;9675;51.538;6.728;2023-07-13T08:43:16;101307.78;;;20.55;89.58
19086;BME280;9675;51.538;6.728;2023-07-13T08:45:50;101310.50;;;20.61;90.67
19086;BME280;9675;51.538;6.728;2023-07-13T08:48:28;101307.97;;;20.69;90.28
19086;BME280;9675;51.538;6.728;2023-07-13T08:51:04;101310.75;;;20.76;90.78
19086;BME280;9675;51.538;6.728;2023-07-13T08:53:39;101299.44;;;20.81;89.27
19086;BME280;9675;51.538;6.728;2023-07-13T08:56:22;101296.06;;;20.88;87.62
19086;BME280;9675;51.538;6.728;2023-07-13T08:58:57;101290.09;;;20.96;87.09
19086;BME280;9675;51.538;6.728;2023-07-13T09:01:31;101293.66;;;21.01;86.29
19086;BME280;9675;51.538;6.728;2023-07-13T09:04:09;101297.19;;;21.05;85.18
19086;BME280;9675;51.538;6.728;2023-07-13T09:06:56;101293.75;;;21.07;84.27
19086;BME280;9675;51.538;6.728;2023-07-13T09:09:38;101305.97;;;21.10;84.17
19086;BME280;9675;51.538;6.728;2023-07-13T09:12:17;101300.75;;;21.10;84.37
19086;BME280;9675;51.538;6.728;2023-07-13T09:14:49;101310.44;;;21.14;84.54
19086;BME280;9675;51.538;6.728;2023-07-13T09:17:24;101302.66;;;21.18;84.07
19086;BME280;9675;51.538;6.728;2023-07-13T09:20:00;101300.13;;;21.26;84.41
19086;BME280;9675;51.538;6.728;2023-07-13T09:22:34;101309.00;;;21.34;84.02
19086;BME280;9675;51.538;6.728;2023-07-13T09:25:18;101316.09;;;21.44;83.47
19086;BME280;9675;51.538;6.728;2023-07-13T09:27:48;101312.59;;;21.45;82.36
19086;BME280;9675;51.538;6.728;2023-07-13T09:30:33;101306.53;;;21.48;82.00
19086;BME280;9675;51.538;6.728;2023-07-13T09:33:01;101308.38;;;21.55;80.86
19086;BME280;9675;51.538;6.728;2023-07-13T09:35:30;101316.28;;;21.59;79.85
19086;BME280;9675;51.538;6.728;2023-07-13T09:38:04;101309.38;;;21.65;78.46
19086;BME280;9675;51.538;6.728;2023-07-13T09:40:52;101310.34;;;21.74;76.98
19086;BME280;9675;51.538;6.728;2023-07-13T09:43:22;101313.94;;;21.82;76.53
19086;BME280;9675;51.538;6.728;2023-07-13T09:45:49;101313.13;;;21.88;75.25
19086;BME280;9675;51.538;6.728;2023-07-13T09:48:19;101315.00;;;21.95;75.30
19086;BME280;9675;51.538;6.728;2023-07-13T09:50:48;101310.69;;;22.03;74.71
19086;BME280;9675;51.538;6.728;2023-07-13T09:53:19;101305.59;;;22.17;73.10
19086;BME280;9675;51.538;6.728;2023-07-13T09:55:48;101307.41;;;22.22;71.34
19086;BME280;9675;51.538;6.728;2023-07-13T09:58:18;101309.13;;;22.20;70.65
19086;BME280;9675;51.538;6.728;2023-07-13T10:00:56;101303.94;;;22.26;70.48
19086;BME280;9675;51.538;6.728;2023-07-13T10:03:28;101313.66;;;22.39;69.63
19086;BME280;9675;51.538;6.728;2023-07-13T10:06:12;101304.22;;;22.58;68.28
19086;BME280;9675;51.538;6.728;2023-07-13T10:08:39;101299.97;;;22.71;68.03
19086;BME280;9675;51.538;6.728;2023-07-13T10:11:12;101302.63;;;22.75;66.73
19086;BME280;9675;51.538;6.728;2023-07-13T10:13:45;101304.38;;;22.76;66.19
19086;BME280;9675;51.538;6.728;2023-07-13T10:16:12;101312.31;;;22.79;66.45
19086;BME280;9675;51.538;6.728;2023-07-13T10:18:46;101306.16;;;22.82;65.98
19086;BME280;9675;51.538;6.728;2023-07-13T10:21:19;101308.81;;;22.86;66.07
19086;BME280;9675;51.538;6.728;2023-07-13T10:23:52;101300.09;;;22.92;64.62
19086;BME280;9675;51.538;6.728;2023-07-13T10:26:26;101301.91;;;22.99;63.90
19086;BME280;9675;51.538;6.728;2023-07-13T10:28:57;101310.69;;;23.06;63.69
19086;BME280;9675;51.538;6.728;2023-07-13T10:31:27;101302.84;;;23.12;63.80
19086;BME280;9675;51.538;6.728;2023-07-13T10:33:54;101308.19;;;23.21;62.55
19086;BME280;9675;51.538;6.728;2023-07-13T10:36:32;101309.06;;;23.27;62.40
19086;BME280;9675;51.538;6.728;2023-07-13T10:39:04;101313.47;;;23.33;61.04
19086;BME280;9675;51.538;6.728;2023-07-13T10:41:39;101320.53;;;23.39;61.10
19086;BME280;9675;51.538;6.728;2023-07-13T10:44:20;101310.97;;;23.47;60.53
19086;BME280;9675;51.538;6.728;2023-07-13T10:46:54;101307.47;;;23.51;59.31
19086;BME280;9675;51.538;6.728;2023-07-13T10:49:23;101312.75;;;23.57;58.80
19086;BME280;9675;51.538;6.728;2023-07-13T10:51:52;101299.63;;;23.64;57.95
19086;BME280;9675;51.538;6.728;2023-07-13T10:54:22;101316.31;;;23.71;56.96
19086;BME280;9675;51.538;6.728;2023-07-13T10:57:17;101312.84;;;23.84;57.03
19086;BME280;9675;51.538;6.728;2023-07-13T10:59:49;101300.59;;;23.92;56.44
19086;BME280;9675;51.538;6.728;2023-07-13T11:02:37;101314.63;;;23.97;56.09
19086;BME280;9675;51.538;6.728;2023-07-13T11:05:25;101325.16;;;24.09;56.10
19086;BME280;9675;51.538;6.728;2023-07-13T11:08:03;101315.59;;;24.18;55.59
19086;BME280;9675;51.538;6.728;2023-07-13T11:10:55;101303.31;;;24.23;55.03
19086;BME280;9675;51.538;6.728;2023-07-13T11:13:57;101303.31;;;24.30;54.62
19086;BME280;9675;51.538;6.728;2023-07-13T11:16:42;101302.44;;;24.43;54.41
19086;BME280;9675;51.538;6.728;2023-07-13T11:19:40;101314.75;;;24.55;53.86
19086;BME280;9675;51.538;6.728;2023-07-13T11:22:42;101309.44;;;24.67;53.30
19086;BME280;9675;51.538;6.728;2023-07-13T11:25:27;101310.34;;;24.80;53.33
19086;BME280;9675;51.538;6.728;2023-07-13T11:28:17;101307.69;;;24.86;52.54
19086;BME280;9675;51.538;6.728;2023-07-13T11:30:49;101296.31;;;24.91;52.53
19086;BME280;9675;51.538;6.728;2023-07-13T11:33:22;101295.41;;;24.97;52.08
19086;BME280;9675;51.538;6.728;2023-07-13T11:35:59;101292.75;;;25.03;52.06
19086;BME280;9675;51.538;6.728;2023-07-13T11:38:35;101296.25;;;25.10;51.90
19086;BME280;9675;51.538;6.728;2023-07-13T11:41:07;101304.16;;;25.16;51.98
19086;BME280;9675;51.538;6.728;2023-07-13T11:43:40;101286.56;;;25.16;50.82
19086;BME280;9675;51.538;6.728;2023-07-13T11:46:16;101293.59;;;25.22;50.98
19086;BME280;9675;51.538;6.728;2023-07-13T11:48:47;101289.19;;;25.28;51.05
19086;BME280;9675;51.538;6.728;2023-07-13T11:51:22;101285.63;;;25.34;51.58
19086;BME280;9675;51.538;6.728;2023-07-13T11:53:52;101284.72;;;25.35;50.08
19086;BME280;9675;51.538;6.728;2023-07-13T11:56:20;101286.47;;;25.39;49.66
19086;BME280;9675;51.538;6.728;2023-07-13T11:58:51;101286.44;;;25.45;49.39
19086;BME280;9675;51.538;6.728;2023-07-13T12:01:23;101280.28;;;25.52;49.47
19086;BME280;9675;51.538;6.728;2023-07-13T12:03:53;101303.16;;;25.58;49.09
19086;BME280;9675;51.538;6.728;2023-07-13T12:06:27;101290.81;;;25.60;49.06
19086;BME280;9675;51.538;6.728;2023-07-13T12:08:57;101286.41;;;25.63;48.58
19086;BME280;9675;51.538;6.728;2023-07-13T12:11:25;101289.03;;;25.65;48.01
19086;BME280;9675;51.538;6.728;2023-07-13T12:13:52;101286.41;;;25.69;48.16
19086;BME280;9675;51.538;6.728;2023-07-13T12:16:28;101285.47;;;25.75;48.21
19086;BME280;9675;51.538;6.728;2023-07-13T12:18:57;101281.09;;;25.74;47.88
19086;BME280;9675;51.538;6.728;2023-07-13T12:21:32;101281.91;;;25.82;47.75
19086;BME280;9675;51.538;6.728;2023-07-13T12:24:01;101276.59;;;25.88;48.34
19086;BME280;9675;51.538;6.728;2023-07-13T12:26:31;101270.41;;;25.94;48.17
19086;BME280;9675;51.538;6.728;2023-07-13T12:29:01;101274.75;;;25.98;48.12
19086;BME280;9675;51.538;6.728;2023-07-13T12:31:36;101287.09;;;25.99;48.03
19086;BME280;9675;51.538;6.728;2023-07-13T12:34:08;101280.88;;;26.03;47.82
19086;BME280;9675;51.538;6.728;2023-07-13T12:36:46;101290.53;;;26.08;47.89
19086;BME280;9675;51.538;6.728;2023-07-13T12:39:18;101294.06;;;26.10;47.66
19086;BME280;9675;51.538;6.728;2023-07-13T12:41:47;101301.06;;;26.11;47.31
19086;BME280;9675;51.538;6.728;2023-07-13T12:44:18;101314.25;;;26.13;47.53
19086;BME280;9675;51.538;6.728;2023-07-13T12:46:56;101349.47;;;26.12;47.45
19086;BME280;9675;51.538;6.728;2023-07-13T12:49:28;101345.13;;;26.03;48.05
19086;BME280;9675;51.538;6.728;2023-07-13T12:52:03;101347.81;;;25.94;49.67
19086;BME280;9675;51.538;6.728;2023-07-13T12:54:32;101354.91;;;25.85;50.64
19086;BME280;9675;51.538;6.728;2023-07-13T12:57:00;101346.16;;;25.79;51.18
19086;BME280;9675;51.538;6.728;2023-07-13T12:59:32;101351.41;;;25.76;51.85
19086;BME280;9675;51.538;6.728;2023-07-13T13:02:26;101359.34;;;25.72;52.21
19086;BME280;9675;51.538;6.728;2023-07-13T13:04:55;101361.13;;;25.67;51.93
19086;BME280;9675;51.538;6.728;2023-07-13T13:07:25;101360.28;;;25.63;52.15
19086;BME280;9675;51.538;6.728;2023-07-13T13:09:52;101355.00;;;25.63;52.04
19086;BME280;9675;51.538;6.728;2023-07-13T13:12:21;101355.84;;;25.65;51.96
19086;BME280;9675;51.538;6.728;2023-07-13T13:14:49;101362.03;;;25.64;52.00
19086;BME280;9675;51.538;6.728;2023-07-13T13:17:22;101365.56;;;25.63;51.83
19086;BME280;9675;51.538;6.728;2023-07-13T13:19:51;101361.16;;;25.64;51.84
19086;BME280;9675;51.538;6.728;2023-07-13T13:22:20;101355.03;;;25.59;51.84
19086;BME280;9675;51.538;6.728;2023-07-13T13:24:48;101347.09;;;25.56;51.91